Boston, Massachusetts
Traffic Map
Current Weather Conditions
Boston, Massachusetts
Overcast
Overcast
40°
Feels Like: 33°
Wind Chill: 33° Ceiling: 9000
Heat Index: 40° Visibility: 10mi
Dew Point: 33° Wind: 10mph
Humidity: 77% Direction: 210° (SSW)
Pressure: 30.39in Gusts: 0mph
Raw Report DataKBOS 280854Z 21009KT 10SM OVC090 04/01 A3039 RMK AO2 SLP291 T00440006 53004
Traffic Incident Summary
Active as of:
Severity:
Category:
InformationThere was an issue retrieving the traffic information for this location. Please try a different location or try again shortly.
Advertisements
Track Severe Weather on mobile